Share

Aguascalientes, Mexico

9:08 AM CDT on April 24, 2014 (GMT -0500)
Jesus Teran International (MMAS) Elev 6109 ft | 21.70 °N, 102.32 °W | Change Station

Current weather conditions updated 22 minutes ago

Scattered Clouds
Scattered Clouds
64 °F
Feels Like 64 °F
N
5
Wind Variable Wind from South
Sunrise 7:22 AM
Sunset 8:12 PM
Moon Waning Crescent

Today is forecast to be Warmer than yesterday.

Pressure 30.26 in
Visibility 12.0 miles
Clouds Scattered Clouds 21000 ft
Dew Point 30 °F
Humidity 28%
Rainfall 0.00 in
Snow Depth Not available.
UV 1 out of 16
Pollen Not available.
Air Quality Not available.
Flu Activity Not available.
METAR MMAS 241346Z 18004KT 12SM SCT210 18/M01 A3026 RMK 8/002

More Conditions Fewer Conditions

Pressure 30.26 in
Visibility 12.0 miles
Clouds Scattered Clouds 21000 ft
Dew Point 30 °F
Humidity 28%
Rainfall 0.00 in
Snow Depth Not available.
UV 1 out of 16
Pollen Not available.
Air Quality Not available.
Flu Activity Not available.
METAR MMAS 241346Z 18004KT 12SM SCT210 18/M01 A3026 RMK 8/002

More Conditions Fewer Conditions

10-Day Weather Forecast

Almanac

Astronomy

Apr. 24, 2014 Rise Set
Actual Time 7:22 AM CDT 8:12 PM CDT
Civil Twilight 6:59 AM CDT 8:35 PM CDT
Nautical Twilight 6:32 AM CDT 9:02 PM CDT
Astronomical Twilight 6:04 AM CDT 9:30 PM CDT
Moon 3:58 AM CDT 4:03 PM CDT
Length of Visible Light 13h 35m
Length of Day
12h 49m
Tomorrow will be 1m 8s longer.
Waning Crescent, 25% of the Moon is Illuminated
Today
Waning Crescent
Apr 29
New
May 6
First Quarter
May 14
Full
May 21
Last Quarter

Yesterday's Extremes

Country Highs Country Lows

Community

  • Clouds mov'n in
    Clouds mov'n in
  • Stacked
    Stacked
  • clouds approaching Red Sox Nation
    clouds approaching Red Sox Nation
  • Balance
    Balance
  • Citysky
    Citysky

WunderPhotos

Upload Photos

1,704,612 photos uploaded!

Nearby

Snow Depth

Not available.

Coastal Water Temperatures

Place Temperature
No Stations Reporting

Earthquake Activity

City Distance Mag. Time & Date
No recent earthquake activity has been reported nearby.
Minimum magnitude displayed is 2.5.

Nearby Weather Stations

There are no personal weather stations in this area.

What do you think?

We're not finished. Please let us know what you like, what you don't like, and what you are still missing.